createdAt,value
2023-04-19T00:02:26.852Z,98078.77
2023-04-19T00:04:58.168Z,98074.15
2023-04-19T00:07:26.533Z,98073.41
2023-04-19T00:09:59.528Z,98075.54
2023-04-19T00:12:30.631Z,98072.35
2023-04-19T00:15:01.566Z,98074.04
2023-04-19T00:17:30.071Z,98072.84
2023-04-19T00:20:00.722Z,98072.73
2023-04-19T00:22:28.828Z,98074.10
2023-04-19T00:24:57.005Z,98075.93
2023-04-19T00:27:27.672Z,98072.86
2023-04-19T00:29:57.461Z,98071.28
2023-04-19T00:32:27.075Z,98068.89
2023-04-19T00:34:55.341Z,98063.59
2023-04-19T00:37:23.676Z,98064.85
2023-04-19T00:39:51.880Z,98065.88
2023-04-19T00:42:20.000Z,98064.64
2023-04-19T00:44:48.369Z,98066.84
2023-04-19T00:47:16.896Z,98064.40
2023-04-19T00:49:46.750Z,98060.52
2023-04-19T00:52:14.920Z,98059.09
2023-04-19T00:54:43.047Z,98057.08
2023-04-19T00:57:11.222Z,98054.02
2023-04-19T00:59:39.477Z,98052.17
2023-04-19T01:02:09.893Z,98049.99
2023-04-19T01:04:38.366Z,98052.12
2023-04-19T01:07:07.681Z,98047.80
2023-04-19T01:09:42.081Z,98047.73
2023-04-19T01:12:12.768Z,98046.87
2023-04-19T01:14:46.172Z,98040.45
2023-04-19T01:17:14.441Z,98038.60
2023-04-19T01:19:42.923Z,98038.13
2023-04-19T01:22:16.892Z,98036.46
2023-04-19T01:24:45.095Z,98033.81
2023-04-19T01:27:14.254Z,98031.65
2023-04-19T01:29:42.664Z,98033.27
2023-04-19T01:32:13.054Z,98034.99
2023-04-19T01:34:42.963Z,98036.23
2023-04-19T01:37:11.100Z,98033.45
2023-04-19T01:39:39.185Z,98030.30
2023-04-19T01:42:08.854Z,98028.40
2023-04-19T01:44:38.247Z,98025.05
2023-04-19T01:47:06.585Z,98028.04
2023-04-19T01:49:34.895Z,98025.27
2023-04-19T01:52:03.018Z,98025.59
2023-04-19T01:54:31.782Z,98027.20
2023-04-19T01:56:59.932Z,98021.93
2023-04-19T01:59:28.160Z,98021.91
2023-04-19T02:01:56.857Z,98021.97
2023-04-19T02:04:25.987Z,98020.33
2023-04-19T02:06:54.116Z,98023.06
2023-04-19T02:09:22.416Z,98019.69
2023-04-19T02:11:50.759Z,98013.91
2023-04-19T02:14:19.059Z,98014.98
2023-04-19T02:16:47.175Z,98015.95
2023-04-19T02:19:15.406Z,98017.03
2023-04-19T02:21:46.195Z,98018.13
2023-04-19T02:24:15.799Z,98015.98
2023-04-19T02:26:46.510Z,98018.09
2023-04-19T02:29:19.267Z,98019.08
2023-04-19T02:31:47.431Z,98015.11
2023-04-19T02:34:18.721Z,98016.80
2023-04-19T02:36:47.154Z,98013.06
2023-04-19T02:39:15.171Z,98007.14
2023-04-19T02:41:43.389Z,98005.96
2023-04-19T02:44:14.035Z,98008.30
2023-04-19T02:46:50.876Z,98006.08
2023-04-19T02:49:21.796Z,98007.55
2023-04-19T02:51:51.153Z,98005.60
2023-04-19T02:54:19.679Z,98003.95
2023-04-19T02:56:48.148Z,98001.33
2023-04-19T02:59:17.307Z,98000.59
2023-04-19T03:01:51.138Z,97999.88
2023-04-19T03:04:19.668Z,97999.29
2023-04-19T03:06:47.956Z,97999.02
2023-04-19T03:09:17.168Z,97997.73
2023-04-19T03:11:45.295Z,97997.04
2023-04-19T03:14:13.659Z,97994.00
2023-04-19T03:16:42.172Z,97991.52
2023-04-19T03:19:10.627Z,97993.81
2023-04-19T03:21:48.437Z,97993.02
2023-04-19T03:24:19.561Z,97990.08
2023-04-19T03:26:51.342Z,97986.02
2023-04-19T03:29:25.513Z,97982.35
2023-04-19T03:32:00.796Z,97981.20
2023-04-19T03:34:29.236Z,97981.13
2023-04-19T03:36:57.414Z,97981.94
2023-04-19T03:39:26.242Z,97981.92
2023-04-19T03:41:58.319Z,97978.91
2023-04-19T03:44:35.695Z,97979.91
2023-04-19T03:47:05.440Z,97979.08
2023-04-19T03:49:38.079Z,97974.38
2023-04-19T03:52:06.754Z,97971.70
2023-04-19T03:54:36.301Z,97974.58
2023-04-19T03:57:05.028Z,97971.97
2023-04-19T03:59:35.455Z,97971.77
2023-04-19T04:02:04.614Z,97968.67
2023-04-19T04:04:33.273Z,97970.39
2023-04-19T04:07:02.558Z,97969.45
2023-04-19T04:09:30.817Z,97965.98
2023-04-19T04:11:59.089Z,97965.88
2023-04-19T04:14:28.106Z,97967.17
2023-04-19T04:16:56.184Z,97964.56
2023-04-19T04:19:24.412Z,97968.48
2023-04-19T04:21:52.558Z,97967.09
2023-04-19T04:24:22.289Z,97960.55
2023-04-19T04:27:21.075Z,97961.51
2023-04-19T04:29:50.941Z,97962.63
2023-04-19T04:32:23.328Z,97962.16
2023-04-19T04:34:54.246Z,97963.02
2023-04-19T04:37:29.903Z,97962.67
2023-04-19T04:40:01.536Z,97964.61
2023-04-19T04:42:31.545Z,97961.92
2023-04-19T04:45:01.711Z,97963.23
2023-04-19T04:47:34.579Z,97963.44
2023-04-19T04:50:06.167Z,97963.56
2023-04-19T04:52:34.587Z,97965.65
2023-04-19T04:55:09.269Z,97965.35
2023-04-19T04:57:39.330Z,97966.89
2023-04-19T05:00:09.413Z,97964.73
2023-04-19T05:02:43.906Z,97965.13
2023-04-19T05:05:19.675Z,97961.13
2023-04-19T05:07:47.919Z,97963.80
2023-04-19T05:10:16.248Z,97964.16
2023-04-19T05:12:48.759Z,97964.88
2023-04-19T05:15:17.164Z,97967.54
2023-04-19T05:17:49.686Z,97967.64
2023-04-19T05:20:17.982Z,97968.41
2023-04-19T05:22:46.945Z,97967.36
2023-04-19T05:25:15.241Z,97964.73
2023-04-19T05:27:43.520Z,97966.21
2023-04-19T05:30:12.052Z,97964.88
2023-04-19T05:32:43.020Z,97962.66
2023-04-19T05:35:12.341Z,97963.05
2023-04-19T05:37:41.788Z,97961.44
2023-04-19T05:40:10.512Z,97960.10
2023-04-19T05:42:39.152Z,97958.48
2023-04-19T05:45:08.076Z,97958.25
2023-04-19T05:47:36.684Z,97957.80
2023-04-19T05:50:34.830Z,97954.02
2023-04-19T05:53:20.051Z,97956.44
2023-04-19T05:55:49.543Z,97956.04
2023-04-19T05:58:18.631Z,97956.65
2023-04-19T06:00:46.898Z,97959.10
2023-04-19T06:03:15.364Z,97961.55
2023-04-19T06:05:43.944Z,97957.85
2023-04-19T06:08:17.076Z,97959.90
2023-04-19T06:10:54.506Z,97961.12
2023-04-19T06:13:26.214Z,97960.48
2023-04-19T06:15:54.940Z,97959.04
2023-04-19T06:18:23.228Z,97963.55
2023-04-19T06:20:53.303Z,97964.77
2023-04-19T06:23:21.520Z,97961.13
2023-04-19T06:25:49.653Z,97962.20
2023-04-19T06:28:18.504Z,97958.52
2023-04-19T06:30:46.713Z,97959.70
2023-04-19T06:33:14.962Z,97959.69
2023-04-19T06:35:43.224Z,97954.63
2023-04-19T06:38:11.313Z,97952.48
2023-04-19T06:40:39.546Z,97951.57
2023-04-19T06:43:08.349Z,97955.71
2023-04-19T06:45:36.934Z,97955.27
2023-04-19T06:48:08.062Z,97957.59
2023-04-19T06:50:36.292Z,97959.37
2023-04-19T06:53:05.939Z,97955.69
2023-04-19T06:55:34.243Z,97955.81
2023-04-19T06:58:02.403Z,97959.73
2023-04-19T07:00:31.011Z,97953.31
2023-04-19T07:03:00.630Z,97961.35
2023-04-19T07:05:30.077Z,97962.77
2023-04-19T07:07:58.530Z,97963.14
2023-04-19T07:10:26.695Z,97966.65
2023-04-19T07:12:55.935Z,97969.59
2023-04-19T07:15:24.156Z,97976.63
2023-04-19T07:17:53.029Z,97977.86
2023-04-19T07:20:22.545Z,97978.97
2023-04-19T07:22:53.918Z,97980.27
2023-04-19T07:25:24.713Z,97982.36
2023-04-19T07:27:54.322Z,97988.12
2023-04-19T07:30:23.003Z,97987.73
2023-04-19T07:32:52.047Z,97985.60
2023-04-19T07:35:21.240Z,97989.36
2023-04-19T07:37:52.487Z,97988.87
2023-04-19T07:40:20.715Z,97988.63
2023-04-19T07:42:51.408Z,97986.97
2023-04-19T07:45:19.620Z,97988.50
2023-04-19T07:47:48.167Z,97987.84
2023-04-19T07:50:16.275Z,97988.09
2023-04-19T07:52:44.845Z,97991.53
2023-04-19T07:55:13.072Z,97985.55
2023-04-19T07:57:46.150Z,97988.08
2023-04-19T08:00:17.472Z,97989.23
2023-04-19T08:03:01.773Z,97988.43
2023-04-19T08:05:31.950Z,97989.13
2023-04-19T08:08:00.464Z,97989.21
2023-04-19T08:10:32.885Z,97990.00
2023-04-19T08:13:05.041Z,97992.29
2023-04-19T08:18:07.142Z,97987.12
2023-04-19T08:20:56.211Z,97987.52
2023-04-19T08:23:34.692Z,97985.49
2023-04-19T08:26:16.584Z,97987.52
2023-04-19T08:28:44.954Z,97989.17
2023-04-19T08:31:13.018Z,97991.30
2023-04-19T08:33:41.242Z,97992.34
2023-04-19T08:36:10.562Z,97988.05
2023-04-19T08:38:39.589Z,97987.32
2023-04-19T08:41:07.708Z,97988.83
2023-04-19T08:43:35.978Z,97989.41
2023-04-19T08:46:04.772Z,97984.75
2023-04-19T08:48:34.872Z,97987.20
2023-04-19T08:51:05.591Z,97990.80
2023-04-19T08:53:35.048Z,97989.67
2023-04-19T08:58:54.724Z,97990.38
2023-04-19T09:01:35.345Z,97990.94
2023-04-19T09:04:34.587Z,97990.44
2023-04-19T09:07:03.934Z,97990.27
2023-04-19T09:09:40.718Z,97994.75
2023-04-19T09:12:20.282Z,97996.86
2023-04-19T09:15:01.223Z,97995.69
2023-04-19T09:17:31.352Z,97998.37
2023-04-19T09:19:59.723Z,98000.73
2023-04-19T09:22:28.193Z,97999.27
2023-04-19T09:27:33.985Z,97999.36
2023-04-19T09:30:04.943Z,98002.13
2023-04-19T09:32:47.413Z,98002.58
2023-04-19T09:35:15.873Z,98003.58
2023-04-19T09:38:06.056Z,98002.17
2023-04-19T09:40:35.428Z,98000.73
2023-04-19T09:45:42.382Z,98007.30
2023-04-19T09:48:11.239Z,98007.44
2023-04-19T09:51:00.131Z,98006.57
2023-04-19T09:53:35.297Z,98005.67
2023-04-19T09:56:06.267Z,98002.27
2023-04-19T09:58:48.976Z,98006.31
2023-04-19T10:01:21.142Z,98006.52
2023-04-19T10:03:50.153Z,98007.04
2023-04-19T10:08:50.494Z,98008.25
2023-04-19T10:11:26.998Z,98010.66
2023-04-19T10:13:57.248Z,98010.52
2023-04-19T10:16:25.730Z,98009.41
2023-04-19T10:18:53.893Z,98006.52
2023-04-19T10:21:22.280Z,98003.85
2023-04-19T10:23:50.649Z,98004.98
2023-04-19T10:26:18.856Z,98002.66
2023-04-19T10:28:48.062Z,98002.08
2023-04-19T10:33:05.040Z,98007.73
2023-04-19T10:35:37.891Z,98006.31
2023-04-19T10:38:13.309Z,98006.94
2023-04-19T10:40:51.480Z,98008.24
2023-04-19T10:43:20.758Z,98012.05
2023-04-19T10:45:49.019Z,98014.09
2023-04-19T10:48:26.668Z,98010.23
2023-04-19T10:51:21.169Z,98011.40
2023-04-19T10:53:53.852Z,98012.48
2023-04-19T10:56:34.596Z,98009.23
2023-04-19T10:59:08.566Z,98011.44
2023-04-19T11:01:41.034Z,98013.20
2023-04-19T11:04:10.126Z,98014.60
2023-04-19T11:07:01.714Z,98016.68
2023-04-19T11:09:42.464Z,98015.91
2023-04-19T11:12:21.156Z,98015.95
2023-04-19T11:14:53.638Z,98016.53
2023-04-19T11:17:26.009Z,98017.44
2023-04-19T11:20:08.717Z,98014.59
2023-04-19T11:22:39.615Z,98015.54
2023-04-19T11:25:12.384Z,98015.77
2023-04-19T11:27:41.555Z,98018.83
2023-04-19T11:30:18.185Z,98022.55
2023-04-19T11:32:52.372Z,98016.71
2023-04-19T11:35:22.471Z,98014.64
2023-04-19T11:37:51.111Z,98012.16
2023-04-19T11:40:20.318Z,98014.27
2023-04-19T11:42:55.864Z,98011.63
2023-04-19T11:45:31.650Z,98015.30
2023-04-19T11:48:02.406Z,98015.90
2023-04-19T11:50:38.599Z,98015.96
2023-04-19T11:53:24.364Z,98009.46
2023-04-19T11:55:54.605Z,98011.55
2023-04-19T11:58:37.162Z,98010.61
2023-04-19T12:01:06.868Z,98007.83
2023-04-19T12:03:50.782Z,98012.19
2023-04-19T12:06:24.530Z,98006.28
2023-04-19T12:08:53.500Z,98005.85
2023-04-19T12:11:26.899Z,98002.49
2023-04-19T12:14:15.640Z,98004.63
2023-04-19T12:16:45.262Z,98002.39
2023-04-19T12:19:15.217Z,98007.73
2023-04-19T12:21:43.826Z,98006.38
2023-04-19T12:24:12.553Z,98006.44
2023-04-19T12:26:57.172Z,98010.70
2023-04-19T12:29:25.649Z,98005.97
2023-04-19T12:31:54.111Z,98011.34
2023-04-19T12:34:22.483Z,98010.67
2023-04-19T12:36:51.331Z,98008.07
2023-04-19T12:39:19.738Z,98010.34
2023-04-19T12:41:49.052Z,98005.56
2023-04-19T12:44:17.564Z,98003.48
2023-04-19T12:46:45.944Z,97999.39
2023-04-19T12:49:14.432Z,97997.58
2023-04-19T12:51:43.208Z,97996.57
2023-04-19T12:54:11.396Z,97999.05
2023-04-19T12:56:39.786Z,97994.02
2023-04-19T12:59:08.686Z,97996.39
2023-04-19T13:01:37.295Z,97997.43
2023-04-19T13:04:05.800Z,97997.65
2023-04-19T13:06:35.024Z,97992.05
2023-04-19T13:09:13.619Z,97993.59
2023-04-19T13:11:43.043Z,97992.94
2023-04-19T13:14:11.259Z,97994.51
2023-04-19T13:16:39.695Z,97993.00
2023-04-19T13:19:07.986Z,97993.90
2023-04-19T13:21:37.266Z,97994.55
2023-04-19T13:24:05.809Z,97993.02
2023-04-19T13:26:34.775Z,97997.23
2023-04-19T13:29:03.492Z,97998.29
2023-04-19T13:31:33.357Z,97998.94
2023-04-19T13:34:01.674Z,97998.23
2023-04-19T13:36:30.111Z,97997.84
2023-04-19T13:38:58.555Z,97996.00
2023-04-19T13:41:27.073Z,97995.75
2023-04-19T13:43:55.470Z,97997.60
2023-04-19T13:46:24.055Z,97998.84
2023-04-19T13:48:52.534Z,97998.53
2023-04-19T13:51:20.692Z,97999.09
2023-04-19T13:53:48.867Z,97999.75
2023-04-19T13:56:17.140Z,98001.19
2023-04-19T13:58:45.554Z,97999.77
2023-04-19T14:01:16.054Z,98000.88
2023-04-19T14:03:44.819Z,98001.08
2023-04-19T14:06:13.292Z,97997.67
2023-04-19T14:08:41.638Z,97997.83
2023-04-19T14:11:11.054Z,97998.41
2023-04-19T14:13:39.667Z,97996.33
2023-04-19T14:16:08.386Z,97998.63
2023-04-19T14:18:37.152Z,97993.77
2023-04-19T14:21:05.772Z,97992.45
2023-04-19T14:23:34.668Z,97991.30
2023-04-19T14:26:05.412Z,97990.69
2023-04-19T14:28:34.020Z,97992.05
2023-04-19T14:31:02.186Z,97992.82
2023-04-19T14:33:33.798Z,97991.36
2023-04-19T14:36:03.288Z,97995.26
2023-04-19T14:38:33.727Z,97992.40
2023-04-19T14:41:04.499Z,97992.52
2023-04-19T14:43:33.492Z,97997.62
2023-04-19T14:46:01.865Z,97998.77
2023-04-19T14:48:30.283Z,98000.57
2023-04-19T14:50:58.382Z,98006.65
2023-04-19T14:53:26.767Z,98002.55
2023-04-19T14:55:54.879Z,98004.38
2023-04-19T14:58:23.686Z,98007.45
2023-04-19T15:00:52.277Z,98009.61
2023-04-19T15:03:20.650Z,98008.84
2023-04-19T15:05:49.179Z,98005.98
2023-04-19T15:08:29.556Z,98006.88
2023-04-19T15:10:58.749Z,98009.48
2023-04-19T15:13:27.304Z,98005.26
2023-04-19T15:15:56.111Z,98008.77
2023-04-19T15:18:24.319Z,98009.38
2023-04-19T15:20:52.698Z,98009.19
2023-04-19T15:23:24.359Z,98004.81
2023-04-19T15:25:54.755Z,98007.86
2023-04-19T15:28:24.086Z,98007.74
2023-04-19T15:31:06.549Z,98010.30
2023-04-19T15:33:35.539Z,98012.48
2023-04-19T15:36:04.316Z,98012.73
2023-04-19T15:38:32.995Z,98014.20
2023-04-19T15:41:02.183Z,98013.10
2023-04-19T15:43:32.178Z,98013.27
2023-04-19T15:46:00.685Z,98013.11
2023-04-19T15:48:29.795Z,98010.23
2023-04-19T15:50:57.959Z,98010.06
2023-04-19T15:53:26.665Z,98012.95
2023-04-19T15:55:55.952Z,98011.38
2023-04-19T15:58:25.009Z,98014.84
2023-04-19T16:00:53.450Z,98015.02
2023-04-19T16:06:07.310Z,98014.33
2023-04-19T16:08:35.582Z,98014.40
2023-04-19T16:11:05.643Z,98015.89
2023-04-19T16:13:33.811Z,98020.14
2023-04-19T16:16:02.120Z,98021.08
2023-04-19T16:18:30.681Z,98020.94
2023-04-19T16:20:58.816Z,98020.45
2023-04-19T16:23:27.183Z,98022.83
2023-04-19T16:25:56.832Z,98022.34
2023-04-19T16:28:25.372Z,98023.88
2023-04-19T16:30:54.397Z,98022.02
2023-04-19T16:33:27.649Z,98024.89
2023-04-19T16:36:00.613Z,98026.85
2023-04-19T16:38:29.242Z,98024.10
2023-04-19T16:40:59.233Z,98023.12
2023-04-19T16:43:28.334Z,98029.11
2023-04-19T16:45:56.952Z,98028.06
2023-04-19T16:48:26.363Z,98032.44
2023-04-19T16:50:54.474Z,98033.38
2023-04-19T16:53:23.245Z,98033.72
2023-04-19T16:55:56.533Z,98033.73
2023-04-19T16:58:26.034Z,98035.65
2023-04-19T17:00:58.459Z,98034.92
2023-04-19T17:03:28.791Z,98032.58
2023-04-19T17:05:57.989Z,98033.70
2023-04-19T17:08:28.795Z,98033.33
2023-04-19T17:10:59.551Z,98033.03
2023-04-19T17:13:29.137Z,98030.34
2023-04-19T17:16:09.027Z,98031.67
2023-04-19T17:31:24.184Z,98038.54
2023-04-19T17:34:54.504Z,98045.52
2023-04-19T17:37:49.636Z,98051.71
2023-04-19T17:40:39.088Z,98058.31
2023-04-19T17:43:07.690Z,98060.70
2023-04-19T17:45:47.734Z,98058.33
2023-04-19T17:48:26.221Z,98062.23
2023-04-19T17:51:00.499Z,98064.42
2023-04-19T17:53:41.174Z,98065.13
2023-04-19T17:56:14.158Z,98065.88
2023-04-19T17:58:42.348Z,98065.54
2023-04-19T18:01:11.354Z,98068.40
2023-04-19T18:03:40.380Z,98069.27
2023-04-19T18:06:10.022Z,98072.95
2023-04-19T18:08:38.544Z,98078.14
2023-04-19T18:11:07.695Z,98080.02
2023-04-19T18:20:20.429Z,98087.95
2023-04-19T18:22:54.165Z,98089.32
2023-04-19T18:25:23.131Z,98089.16
2023-04-19T18:27:51.357Z,98088.46
2023-04-19T18:30:19.671Z,98087.18
2023-04-19T18:32:48.318Z,98085.81
2023-04-19T18:35:17.780Z,98088.22
2023-04-19T18:37:46.699Z,98086.84
2023-04-19T18:40:16.162Z,98087.78
2023-04-19T18:42:44.451Z,98089.64
2023-04-19T18:45:12.966Z,98089.88
2023-04-19T18:47:42.326Z,98093.90
2023-04-19T18:50:12.182Z,98093.04
2023-04-19T18:52:42.093Z,98091.63
2023-04-19T18:55:12.256Z,98093.20
2023-04-19T18:57:43.214Z,98091.17
2023-04-19T19:00:11.794Z,98091.77
2023-04-19T19:02:49.701Z,98091.45
2023-04-19T19:05:18.136Z,98091.61
2023-04-19T19:07:47.369Z,98094.23
2023-04-19T19:10:21.885Z,98095.59
2023-04-19T19:12:53.814Z,98092.73
2023-04-19T19:15:22.333Z,98089.95
2023-04-19T19:17:51.014Z,98091.60
2023-04-19T19:20:19.888Z,98093.44
2023-04-19T19:22:53.074Z,98093.73
2023-04-19T19:25:21.555Z,98092.52
2023-04-19T19:28:06.375Z,98092.62
2023-04-19T19:30:40.242Z,98085.90
2023-04-19T19:33:08.630Z,98085.09
2023-04-19T19:35:37.028Z,98089.34
2023-04-19T19:38:06.473Z,98092.70
2023-04-19T19:40:46.321Z,98087.81
2023-04-19T19:43:24.088Z,98094.95
2023-04-19T19:45:52.243Z,98093.33
2023-04-19T19:48:20.610Z,98097.98
2023-04-19T19:51:17.273Z,98100.27
2023-04-19T19:53:36.917Z,98101.80
2023-04-19T19:56:13.070Z,98098.44
2023-04-19T19:58:50.325Z,98098.40
2023-04-19T20:01:22.511Z,98098.43
2023-04-19T20:03:55.050Z,98101.27
2023-04-19T20:08:57.449Z,98097.54
2023-04-19T20:11:25.845Z,98095.48
2023-04-19T20:13:54.490Z,98094.98
2023-04-19T20:16:25.133Z,98096.67
2023-04-19T20:18:55.136Z,98094.86
2023-04-19T20:21:24.105Z,98095.95
2023-04-19T20:23:54.099Z,98091.27
2023-04-19T20:26:22.423Z,98094.30
2023-04-19T20:28:51.472Z,98093.60
2023-04-19T20:31:19.545Z,98096.46
2023-04-19T20:33:47.858Z,98101.24
2023-04-19T20:36:16.572Z,98100.86
2023-04-19T20:38:47.930Z,98103.23
2023-04-19T20:41:16.488Z,98103.09
2023-04-19T20:43:50.609Z,98102.96
2023-04-19T20:46:20.043Z,98101.36
2023-04-19T20:48:48.369Z,98093.90
2023-04-19T20:51:17.740Z,98092.05
2023-04-19T20:53:47.492Z,98094.11
2023-04-19T20:56:15.562Z,98092.32
2023-04-19T20:58:49.952Z,98095.58
2023-04-19T21:01:18.501Z,98097.70
2023-04-19T21:03:50.115Z,98101.19
2023-04-19T21:06:28.372Z,98097.67
2023-04-19T21:08:57.692Z,98094.04
2023-04-19T21:11:25.814Z,98095.70
2023-04-19T21:13:55.305Z,98100.98
2023-04-19T21:16:23.822Z,98099.95
2023-04-19T21:18:53.529Z,98108.67
2023-04-19T21:21:22.157Z,98111.68
2023-04-19T21:23:50.776Z,98111.42
2023-04-19T21:26:18.930Z,98110.16
2023-04-19T21:28:47.168Z,98112.52
2023-04-19T21:31:15.363Z,98107.31
2023-04-19T21:33:44.713Z,98101.85
2023-04-19T21:36:13.321Z,98103.56
2023-04-19T21:38:42.402Z,98102.66
2023-04-19T21:41:10.994Z,98100.23
2023-04-19T21:43:39.297Z,98095.19
2023-04-19T21:46:07.704Z,98094.08
2023-04-19T21:48:36.429Z,98105.55
2023-04-19T21:51:04.905Z,98111.40
2023-04-19T21:53:33.306Z,98110.99
2023-04-19T21:56:03.049Z,98111.27
2023-04-19T21:58:31.642Z,98115.05
2023-04-19T22:00:59.884Z,98118.29
2023-04-19T22:03:28.419Z,98115.61
2023-04-19T22:06:01.968Z,98108.92
2023-04-19T22:08:32.768Z,98101.85
2023-04-19T22:11:03.712Z,98096.32
2023-04-19T22:13:33.602Z,98099.73
2023-04-19T22:16:02.552Z,98102.70
2023-04-19T22:18:31.456Z,98101.33
2023-04-19T22:20:59.857Z,98097.94
2023-04-19T22:23:27.987Z,98100.79
2023-04-19T22:25:56.128Z,98101.68
2023-04-19T22:28:24.537Z,98101.34
2023-04-19T22:30:52.823Z,98098.95
2023-04-19T22:33:22.090Z,98101.77
2023-04-19T22:35:50.367Z,98097.50
2023-04-19T22:38:19.172Z,98094.56
2023-04-19T22:40:47.428Z,98096.59
2023-04-19T22:43:16.391Z,98096.73
2023-04-19T22:45:47.881Z,98095.86
2023-04-19T22:50:44.618Z,98089.69
2023-04-19T22:53:13.284Z,98091.70
2023-04-19T22:55:42.233Z,98092.92
2023-04-19T22:58:10.459Z,98088.51
2023-04-19T23:00:40.867Z,98083.15
2023-04-19T23:03:11.477Z,98085.36
2023-04-19T23:05:41.774Z,98083.41
2023-04-19T23:08:10.011Z,98082.54
2023-04-19T23:10:38.379Z,98082.96
2023-04-19T23:13:07.058Z,98081.73
2023-04-19T23:15:35.581Z,98081.54
2023-04-19T23:18:04.399Z,98083.89
2023-04-19T23:20:33.488Z,98080.77
2023-04-19T23:23:01.791Z,98080.43
2023-04-19T23:25:30.461Z,98076.62
2023-04-19T23:27:58.548Z,98079.29
2023-04-19T23:30:26.760Z,98078.72
2023-04-19T23:32:55.044Z,98081.29
2023-04-19T23:35:23.417Z,98074.27
2023-04-19T23:37:51.535Z,98075.85
2023-04-19T23:40:20.214Z,98073.08
2023-04-19T23:42:48.331Z,98071.66
2023-04-19T23:45:16.535Z,98066.60
2023-04-19T23:47:44.669Z,98064.08
2023-04-19T23:50:12.918Z,98062.85
2023-04-19T23:52:41.385Z,98060.52
2023-04-19T23:55:09.719Z,98059.77
2023-04-19T23:57:37.971Z,98058.30
